sensor_id;sensor_type;location;lat;lon;timestamp;pressure;altitude;pressure_sealevel;temperature;humidity
10824;BME280;39116;59.332;18.034;2023-03-15T00:00:10;98630.34;;;-0.86;100.00
10824;BME280;39116;59.332;18.034;2023-03-15T00:02:32;98619.16;;;-0.91;100.00
10824;BME280;39116;59.332;18.034;2023-03-15T00:04:55;98635.47;;;-0.83;100.00
10824;BME280;39116;59.332;18.034;2023-03-15T00:07:17;98635.69;;;-0.73;100.00
10824;BME280;39116;59.332;18.034;2023-03-15T00:09:39;98634.66;;;-0.82;100.00
10824;BME280;39116;59.332;18.034;2023-03-15T00:12:01;98649.81;;;-0.91;100.00
10824;BME280;39116;59.332;18.034;2023-03-15T00:14:23;98644.78;;;-0.88;100.00
10824;BME280;39116;59.332;18.034;2023-03-15T00:16:45;98642.91;;;-0.95;100.00
10824;BME280;39116;59.332;18.034;2023-03-15T00:19:07;98655.69;;;-0.95;100.00
10824;BME280;39116;59.332;18.034;2023-03-15T00:21:31;98645.50;;;-0.92;100.00
10824;BME280;39116;59.332;18.034;2023-03-15T00:23:53;98647.88;;;-1.01;100.00
10824;BME280;39116;59.332;18.034;2023-03-15T00:26:17;98651.41;;;-0.96;100.00
10824;BME280;39116;59.332;18.034;2023-03-15T00:28:38;98668.25;;;-1.04;100.00
10824;BME280;39116;59.332;18.034;2023-03-15T00:31:05;98667.34;;;-1.06;100.00
10824;BME280;39116;59.332;18.034;2023-03-15T00:33:27;98668.19;;;-1.07;100.00
10824;BME280;39116;59.332;18.034;2023-03-15T00:35:48;98677.53;;;-1.08;100.00
10824;BME280;39116;59.332;18.034;2023-03-15T00:38:14;98681.59;;;-1.18;100.00
10824;BME280;39116;59.332;18.034;2023-03-15T00:40:36;98686.78;;;-1.14;100.00
10824;BME280;39116;59.332;18.034;2023-03-15T00:42:58;98697.84;;;-1.14;100.00
10824;BME280;39116;59.332;18.034;2023-03-15T00:45:21;98697.00;;;-1.14;100.00
10824;BME280;39116;59.332;18.034;2023-03-15T00:47:42;98702.59;;;-1.29;100.00
10824;BME280;39116;59.332;18.034;2023-03-15T00:50:04;98709.56;;;-1.24;100.00
10824;BME280;39116;59.332;18.034;2023-03-15T00:52:26;98703.31;;;-1.35;100.00
10824;BME280;39116;59.332;18.034;2023-03-15T00:54:53;98641.16;;;-1.75;100.00
10824;BME280;39116;59.332;18.034;2023-03-15T00:57:16;98722.19;;;-1.28;100.00
10824;BME280;39116;59.332;18.034;2023-03-15T00:59:37;98726.25;;;-1.37;100.00
10824;BME280;39116;59.332;18.034;2023-03-15T01:01:59;98727.13;;;-1.36;100.00
10824;BME280;39116;59.332;18.034;2023-03-15T01:04:21;98732.16;;;-1.39;100.00
10824;BME280;39116;59.332;18.034;2023-03-15T01:06:43;98744.16;;;-1.35;100.00
10824;BME280;39116;59.332;18.034;2023-03-15T01:09:05;98737.13;;;-1.45;100.00
10824;BME280;39116;59.332;18.034;2023-03-15T01:11:29;98741.31;;;-1.49;100.00
10824;BME280;39116;59.332;18.034;2023-03-15T01:13:51;98726.63;;;-1.58;100.00
10824;BME280;39116;59.332;18.034;2023-03-15T01:16:13;98754.06;;;-1.47;100.00
10824;BME280;39116;59.332;18.034;2023-03-15T01:18:35;98750.72;;;-1.46;100.00
10824;BME280;39116;59.332;18.034;2023-03-15T01:20:58;98753.22;;;-1.48;100.00
10824;BME280;39116;59.332;18.034;2023-03-15T01:23:20;98730.56;;;-1.70;100.00
10824;BME280;39116;59.332;18.034;2023-03-15T01:25:41;98755.38;;;-1.65;100.00
10824;BME280;39116;59.332;18.034;2023-03-15T01:28:05;98758.91;;;-1.60;100.00
10824;BME280;39116;59.332;18.034;2023-03-15T01:30:27;98776.09;;;-1.52;100.00
10824;BME280;39116;59.332;18.034;2023-03-15T01:32:49;98775.84;;;-1.62;100.00
10824;BME280;39116;59.332;18.034;2023-03-15T01:35:11;98752.28;;;-1.85;100.00
10824;BME280;39116;59.332;18.034;2023-03-15T01:37:33;98785.00;;;-1.70;100.00
10824;BME280;39116;59.332;18.034;2023-03-15T01:39:55;98792.78;;;-1.64;100.00
10824;BME280;39116;59.332;18.034;2023-03-15T01:42:17;98767.84;;;-1.76;100.00
10824;BME280;39116;59.332;18.034;2023-03-15T01:44:50;98785.81;;;-1.71;100.00
10824;BME280;39116;59.332;18.034;2023-03-15T01:47:12;98788.31;;;-1.74;100.00
10824;BME280;39116;59.332;18.034;2023-03-15T01:49:34;98792.34;;;-1.82;100.00
10824;BME280;39116;59.332;18.034;2023-03-15T01:51:58;98788.78;;;-1.87;100.00
10824;BME280;39116;59.332;18.034;2023-03-15T01:54:26;98792.41;;;-1.79;100.00
10824;BME280;39116;59.332;18.034;2023-03-15T01:56:53;98778.59;;;-1.87;100.00
10824;BME280;39116;59.332;18.034;2023-03-15T01:59:21;98800.13;;;-1.76;100.00
10824;BME280;39116;59.332;18.034;2023-03-15T02:01:46;98798.28;;;-1.82;100.00
10824;BME280;39116;59.332;18.034;2023-03-15T02:04:11;98801.59;;;-1.86;100.00
10824;BME280;39116;59.332;18.034;2023-03-15T02:06:34;98800.50;;;-1.94;100.00
10824;BME280;39116;59.332;18.034;2023-03-15T02:08:59;98806.34;;;-1.98;100.00
10824;BME280;39116;59.332;18.034;2023-03-15T02:11:24;98810.66;;;-1.96;100.00
10824;BME280;39116;59.332;18.034;2023-03-15T02:13:47;98668.25;;;-2.79;100.00
10824;BME280;39116;59.332;18.034;2023-03-15T02:16:10;98820.94;;;-1.93;100.00
10824;BME280;39116;59.332;18.034;2023-03-15T02:18:33;98818.31;;;-1.96;100.00
10824;BME280;39116;59.332;18.034;2023-03-15T02:21:04;98828.41;;;-2.00;100.00
10824;BME280;39116;59.332;18.034;2023-03-15T02:23:29;98825.81;;;-2.02;100.00
10824;BME280;39116;59.332;18.034;2023-03-15T02:26:01;98835.84;;;-2.08;100.00
10824;BME280;39116;59.332;18.034;2023-03-15T02:28:27;98813.03;;;-2.34;100.00
10824;BME280;39116;59.332;18.034;2023-03-15T02:30:50;98848.50;;;-2.11;100.00
10824;BME280;39116;59.332;18.034;2023-03-15T02:33:15;98850.31;;;-2.07;100.00
10824;BME280;39116;59.332;18.034;2023-03-15T02:35:39;98856.91;;;-2.14;100.00
10824;BME280;39116;59.332;18.034;2023-03-15T02:38:01;98857.56;;;-2.21;100.00
10824;BME280;39116;59.332;18.034;2023-03-15T02:40:24;98864.53;;;-2.15;100.00
10824;BME280;39116;59.332;18.034;2023-03-15T02:42:52;98869.53;;;-2.18;100.00
10824;BME280;39116;59.332;18.034;2023-03-15T02:45:16;98866.25;;;-2.14;100.00
10824;BME280;39116;59.332;18.034;2023-03-15T02:47:38;98858.41;;;-2.22;100.00
10824;BME280;39116;59.332;18.034;2023-03-15T02:50:00;98863.66;;;-2.16;100.00
10824;BME280;39116;59.332;18.034;2023-03-15T02:52:22;98870.59;;;-2.12;100.00
10824;BME280;39116;59.332;18.034;2023-03-15T02:54:45;98867.91;;;-2.16;100.00
10824;BME280;39116;59.332;18.034;2023-03-15T02:57:08;98874.44;;;-2.24;100.00
10824;BME280;39116;59.332;18.034;2023-03-15T02:59:30;98874.44;;;-2.24;100.00
10824;BME280;39116;59.332;18.034;2023-03-15T03:01:53;98881.28;;;-2.23;100.00
10824;BME280;39116;59.332;18.034;2023-03-15T03:04:15;98884.47;;;-2.31;100.00
10824;BME280;39116;59.332;18.034;2023-03-15T03:06:37;98890.44;;;-2.30;100.00
10824;BME280;39116;59.332;18.034;2023-03-15T03:08:59;98774.44;;;-3.05;100.00
10824;BME280;39116;59.332;18.034;2023-03-15T03:11:23;98903.13;;;-2.32;100.00
10824;BME280;39116;59.332;18.034;2023-03-15T03:13:45;98913.38;;;-2.30;100.00
10824;BME280;39116;59.332;18.034;2023-03-15T03:16:08;98879.53;;;-2.55;100.00
10824;BME280;39116;59.332;18.034;2023-03-15T03:18:31;98920.06;;;-2.34;100.00
10824;BME280;39116;59.332;18.034;2023-03-15T03:20:55;98914.69;;;-2.43;100.00
10824;BME280;39116;59.332;18.034;2023-03-15T03:23:18;98919.88;;;-2.40;100.00
10824;BME280;39116;59.332;18.034;2023-03-15T03:25:40;98917.19;;;-2.44;100.00
10824;BME280;39116;59.332;18.034;2023-03-15T03:28:01;98919.03;;;-2.40;100.00
10824;BME280;39116;59.332;18.034;2023-03-15T03:30:23;98920.78;;;-2.38;100.00
10824;BME280;39116;59.332;18.034;2023-03-15T03:32:45;98923.06;;;-2.47;100.00
10824;BME280;39116;59.332;18.034;2023-03-15T03:35:09;98920.63;;;-2.42;100.00
10824;BME280;39116;59.332;18.034;2023-03-15T03:37:31;98930.97;;;-2.38;100.00
10824;BME280;39116;59.332;18.034;2023-03-15T03:39:55;98937.63;;;-2.43;100.00
10824;BME280;39116;59.332;18.034;2023-03-15T03:42:17;98938.16;;;-2.53;100.00
10824;BME280;39116;59.332;18.034;2023-03-15T03:44:39;98952.22;;;-2.37;100.00
10824;BME280;39116;59.332;18.034;2023-03-15T03:47:01;98917.69;;;-2.56;100.00
10824;BME280;39116;59.332;18.034;2023-03-15T03:49:23;98956.41;;;-2.39;100.00
10824;BME280;39116;59.332;18.034;2023-03-15T03:51:46;98955.66;;;-2.37;100.00
10824;BME280;39116;59.332;18.034;2023-03-15T03:54:09;98953.75;;;-2.44;100.00
10824;BME280;39116;59.332;18.034;2023-03-15T03:56:30;98958.06;;;-2.41;100.00
10824;BME280;39116;59.332;18.034;2023-03-15T03:58:52;98959.88;;;-2.37;100.00
10824;BME280;39116;59.332;18.034;2023-03-15T04:01:14;98960.56;;;-2.43;100.00
10824;BME280;39116;59.332;18.034;2023-03-15T04:03:36;98965.38;;;-2.52;100.00
10824;BME280;39116;59.332;18.034;2023-03-15T04:06:00;98967.47;;;-2.39;100.00
10824;BME280;39116;59.332;18.034;2023-03-15T04:08:26;98962.59;;;-2.60;100.00
10824;BME280;39116;59.332;18.034;2023-03-15T04:10:51;98966.50;;;-2.44;100.00
10824;BME280;39116;59.332;18.034;2023-03-15T04:13:13;98972.38;;;-2.45;100.00
10824;BME280;39116;59.332;18.034;2023-03-15T04:15:35;98988.59;;;-2.43;100.00
10824;BME280;39116;59.332;18.034;2023-03-15T04:17:57;98981.78;;;-2.42;100.00
10824;BME280;39116;59.332;18.034;2023-03-15T04:20:19;98981.78;;;-2.42;100.00
10824;BME280;39116;59.332;18.034;2023-03-15T04:22:42;98979.13;;;-2.47;100.00
10824;BME280;39116;59.332;18.034;2023-03-15T04:25:10;98985.22;;;-2.42;100.00
10824;BME280;39116;59.332;18.034;2023-03-15T04:27:32;98974.94;;;-2.45;100.00
10824;BME280;39116;59.332;18.034;2023-03-15T04:29:54;98982.88;;;-2.36;100.00
10824;BME280;39116;59.332;18.034;2023-03-15T04:32:16;98971.13;;;-2.58;100.00
10824;BME280;39116;59.332;18.034;2023-03-15T04:34:38;98972.38;;;-2.45;100.00
10824;BME280;39116;59.332;18.034;2023-03-15T04:37:00;98921.50;;;-2.96;100.00
10824;BME280;39116;59.332;18.034;2023-03-15T04:39:22;98992.47;;;-2.54;100.00
10824;BME280;39116;59.332;18.034;2023-03-15T04:41:45;98987.94;;;-2.63;100.00
10824;BME280;39116;59.332;18.034;2023-03-15T04:44:07;98988.81;;;-2.62;100.00
10824;BME280;39116;59.332;18.034;2023-03-15T04:46:29;98983.72;;;-2.62;100.00
10824;BME280;39116;59.332;18.034;2023-03-15T04:48:52;98980.16;;;-2.67;100.00
10824;BME280;39116;59.332;18.034;2023-03-15T04:51:14;99000.63;;;-2.64;100.00
10824;BME280;39116;59.332;18.034;2023-03-15T04:53:36;99003.28;;;-2.61;100.00
10824;BME280;39116;59.332;18.034;2023-03-15T04:55:58;98940.16;;;-2.97;100.00
10824;BME280;39116;59.332;18.034;2023-03-15T04:58:21;98999.09;;;-2.59;100.00
10824;BME280;39116;59.332;18.034;2023-03-15T05:00:43;99005.09;;;-2.57;100.00
10824;BME280;39116;59.332;18.034;2023-03-15T05:03:05;99009.19;;;-2.62;100.00
10824;BME280;39116;59.332;18.034;2023-03-15T05:05:27;99016.94;;;-2.59;100.00
10824;BME280;39116;59.332;18.034;2023-03-15T05:07:50;99025.53;;;-2.56;100.00
10824;BME280;39116;59.332;18.034;2023-03-15T05:10:12;99027.94;;;-2.60;100.00
10824;BME280;39116;59.332;18.034;2023-03-15T05:12:34;99022.03;;;-2.59;100.00
10824;BME280;39116;59.332;18.034;2023-03-15T05:14:57;99027.94;;;-2.60;100.00
10824;BME280;39116;59.332;18.034;2023-03-15T05:17:19;99021.19;;;-2.60;100.00
10824;BME280;39116;59.332;18.034;2023-03-15T05:19:41;99035.69;;;-2.57;100.00
10824;BME280;39116;59.332;18.034;2023-03-15T05:22:03;99035.91;;;-2.50;100.00
10824;BME280;39116;59.332;18.034;2023-03-15T05:24:26;99043.53;;;-2.51;100.00
10824;BME280;39116;59.332;18.034;2023-03-15T05:26:47;99049.75;;;-2.43;100.00
10824;BME280;39116;59.332;18.034;2023-03-15T05:29:09;99041.69;;;-2.55;100.00
10824;BME280;39116;59.332;18.034;2023-03-15T05:31:33;99053.75;;;-2.51;100.00
10824;BME280;39116;59.332;18.034;2023-03-15T05:33:56;99053.00;;;-2.47;100.00
10824;BME280;39116;59.332;18.034;2023-03-15T05:36:18;99066.38;;;-2.54;100.00
10824;BME280;39116;59.332;18.034;2023-03-15T05:38:41;99074.81;;;-2.55;100.00
10824;BME280;39116;59.332;18.034;2023-03-15T05:41:03;99065.44;;;-2.56;100.00
10824;BME280;39116;59.332;18.034;2023-03-15T05:43:25;99069.09;;;-2.48;100.00
10824;BME280;39116;59.332;18.034;2023-03-15T05:45:47;99066.66;;;-2.45;100.00
10824;BME280;39116;59.332;18.034;2023-03-15T05:48:11;99087.06;;;-2.45;100.00
10824;BME280;39116;59.332;18.034;2023-03-15T05:50:33;99084.50;;;-2.45;100.00
10824;BME280;39116;59.332;18.034;2023-03-15T05:52:55;99082.69;;;-2.49;100.00
10824;BME280;39116;59.332;18.034;2023-03-15T05:55:17;99098.94;;;-2.45;100.00
10824;BME280;39116;59.332;18.034;2023-03-15T05:57:39;99078.69;;;-2.41;100.00
10824;BME280;39116;59.332;18.034;2023-03-15T06:00:01;99087.84;;;-2.46;100.00
10824;BME280;39116;59.332;18.034;2023-03-15T06:02:24;99102.28;;;-2.46;100.00
10824;BME280;39116;59.332;18.034;2023-03-15T06:04:48;99103.31;;;-2.41;100.00
10824;BME280;39116;59.332;18.034;2023-03-15T06:07:10;99099.22;;;-2.36;100.00
10824;BME280;39116;59.332;18.034;2023-03-15T06:09:32;99098.88;;;-2.21;100.00
10824;BME280;39116;59.332;18.034;2023-03-15T06:11:54;99111.66;;;-2.20;100.00
10824;BME280;39116;59.332;18.034;2023-03-15T06:14:16;99112.69;;;-2.15;100.00
10824;BME280;39116;59.332;18.034;2023-03-15T06:16:37;99120.72;;;-2.28;100.00
10824;BME280;39116;59.332;18.034;2023-03-15T06:18:59;99120.13;;;-2.21;100.00
10824;BME280;39116;59.332;18.034;2023-03-15T06:21:23;99123.59;;;-2.19;100.00
10824;BME280;39116;59.332;18.034;2023-03-15T06:23:45;99142.25;;;-2.20;100.00
10824;BME280;39116;59.332;18.034;2023-03-15T06:26:07;99145.88;;;-2.13;100.00
10824;BME280;39116;59.332;18.034;2023-03-15T06:28:29;99135.97;;;-2.04;100.00
10824;BME280;39116;59.332;18.034;2023-03-15T06:30:50;99142.38;;;-2.17;100.00
10824;BME280;39116;59.332;18.034;2023-03-15T06:33:12;99138.31;;;-2.10;100.00
10824;BME280;39116;59.332;18.034;2023-03-15T06:35:34;99143.53;;;-2.07;100.00
10824;BME280;39116;59.332;18.034;2023-03-15T06:37:58;99069.16;;;-2.46;100.00
10824;BME280;39116;59.332;18.034;2023-03-15T06:40:20;99163.13;;;-2.06;100.00
10824;BME280;39116;59.332;18.034;2023-03-15T06:42:42;99170.03;;;-2.02;100.00
10824;BME280;39116;59.332;18.034;2023-03-15T06:45:05;99166.16;;;-1.90;100.00
10824;BME280;39116;59.332;18.034;2023-03-15T06:47:28;99154.19;;;-2.19;100.00
10824;BME280;39116;59.332;18.034;2023-03-15T06:49:50;99177.88;;;-1.96;100.00
10824;BME280;39116;59.332;18.034;2023-03-15T06:52:12;99168.50;;;-1.97;100.00
10824;BME280;39116;59.332;18.034;2023-03-15T06:54:35;99167.38;;;-1.79;100.00
10824;BME280;39116;59.332;18.034;2023-03-15T06:56:57;99172.03;;;-1.93;100.00
10824;BME280;39116;59.332;18.034;2023-03-15T06:59:19;99174.72;;;-1.88;100.00
10824;BME280;39116;59.332;18.034;2023-03-15T07:01:41;99169.09;;;-1.78;100.00
10824;BME280;39116;59.332;18.034;2023-03-15T07:04:03;99183.91;;;-1.68;100.00
10824;BME280;39116;59.332;18.034;2023-03-15T07:06:25;99187.19;;;-1.72;100.00
10824;BME280;39116;59.332;18.034;2023-03-15T07:08:47;99181.25;;;-1.71;100.00
10824;BME280;39116;59.332;18.034;2023-03-15T07:11:12;99192.56;;;-1.63;100.00
10824;BME280;39116;59.332;18.034;2023-03-15T07:13:34;99190.94;;;-1.61;100.00
10824;BME280;39116;59.332;18.034;2023-03-15T07:15:56;99191.66;;;-1.65;100.00
10824;BME280;39116;59.332;18.034;2023-03-15T07:18:18;99192.69;;;-1.60;100.00
10824;BME280;39116;59.332;18.034;2023-03-15T07:20:40;99185.88;;;-1.59;100.00
10824;BME280;39116;59.332;18.034;2023-03-15T07:23:02;99187.84;;;-1.50;100.00
10824;BME280;39116;59.332;18.034;2023-03-15T07:25:24;99193.25;;;-1.41;100.00
10824;BME280;39116;59.332;18.034;2023-03-15T07:27:47;99189.69;;;-1.46;100.00
10824;BME280;39116;59.332;18.034;2023-03-15T07:30:10;99188.31;;;-1.35;100.00
10824;BME280;39116;59.332;18.034;2023-03-15T07:32:32;99195.53;;;-1.22;100.00
10824;BME280;39116;59.332;18.034;2023-03-15T07:34:54;99189.06;;;-1.10;100.00
10824;BME280;39116;59.332;18.034;2023-03-15T07:37:19;99191.75;;;-1.06;100.00
10824;BME280;39116;59.332;18.034;2023-03-15T07:39:41;99191.34;;;-0.91;100.00
10824;BME280;39116;59.332;18.034;2023-03-15T07:42:04;99197.50;;;-0.83;100.00
10824;BME280;39116;59.332;18.034;2023-03-15T07:44:28;99196.13;;;-1.02;100.00
10824;BME280;39116;59.332;18.034;2023-03-15T07:46:50;99179.47;;;-1.18;100.00
10824;BME280;39116;59.332;18.034;2023-03-15T07:49:12;99199.16;;;-0.85;100.00
10824;BME280;39116;59.332;18.034;2023-03-15T07:51:33;99202.91;;;-0.73;100.00
10824;BME280;39116;59.332;18.034;2023-03-15T07:53:55;99201.31;;;-0.70;100.00
10824;BME280;39116;59.332;18.034;2023-03-15T07:56:17;99208.28;;;-0.64;100.00
10824;BME280;39116;59.332;18.034;2023-03-15T07:58:39;99204.72;;;-0.69;100.00
10824;BME280;39116;59.332;18.034;2023-03-15T08:01:03;99209.19;;;-0.62;100.00
10824;BME280;39116;59.332;18.034;2023-03-15T08:03:25;99214.25;;;-0.64;100.00
10824;BME280;39116;59.332;18.034;2023-03-15T08:05:47;99204.06;;;-0.62;100.00
10824;BME280;39116;59.332;18.034;2023-03-15T08:08:09;99206.78;;;-0.56;100.00
10824;BME280;39116;59.332;18.034;2023-03-15T08:10:31;99219.56;;;-0.56;100.00
10824;BME280;39116;59.332;18.034;2023-03-15T08:12:53;99209.88;;;-0.37;100.00
10824;BME280;39116;59.332;18.034;2023-03-15T08:15:15;99211.09;;;-0.55;100.00
10824;BME280;39116;59.332;18.034;2023-03-15T08:17:38;99223.47;;;-0.39;100.00
10824;BME280;39116;59.332;18.034;2023-03-15T08:20:00;99226.19;;;-0.32;100.00
10824;BME280;39116;59.332;18.034;2023-03-15T08:22:23;99231.94;;;-0.40;100.00
10824;BME280;39116;59.332;18.034;2023-03-15T08:24:45;99245.03;;;-0.29;100.00
10824;BME280;39116;59.332;18.034;2023-03-15T08:27:07;99230.53;;;-0.30;100.00
10824;BME280;39116;59.332;18.034;2023-03-15T08:29:30;99251.19;;;-0.22;100.00
10824;BME280;39116;59.332;18.034;2023-03-15T08:31:52;99243.94;;;-0.39;100.00
10824;BME280;39116;59.332;18.034;2023-03-15T08:34:16;99242.75;;;-0.18;100.00
10824;BME280;39116;59.332;18.034;2023-03-15T08:36:38;99244.66;;;-0.11;100.00
10824;BME280;39116;59.332;18.034;2023-03-15T08:39:01;99258.25;;;-0.13;100.00
10824;BME280;39116;59.332;18.034;2023-03-15T08:41:24;99249.88;;;-0.08;100.00
10824;BME280;39116;59.332;18.034;2023-03-15T08:43:46;99262.09;;;0.03;100.00
10824;BME280;39116;59.332;18.034;2023-03-15T08:46:08;99259.72;;;0.10;100.00
10824;BME280;39116;59.332;18.034;2023-03-15T08:48:30;99258.78;;;0.07;100.00
10824;BME280;39116;59.332;18.034;2023-03-15T08:50:53;99264.69;;;0.04;100.00
10824;BME280;39116;59.332;18.034;2023-03-15T08:53:15;99273.28;;;0.06;100.00
10824;BME280;39116;59.332;18.034;2023-03-15T08:55:37;99273.41;;;0.12;100.00
10824;BME280;39116;59.332;18.034;2023-03-15T08:57:59;99271.28;;;-0.04;100.00
10824;BME280;39116;59.332;18.034;2023-03-15T09:00:22;99286.63;;;-0.04;100.00
10824;BME280;39116;59.332;18.034;2023-03-15T09:02:44;99281.16;;;0.14;100.00
10824;BME280;39116;59.332;18.034;2023-03-15T09:05:08;99143.31;;;-0.72;100.00
10824;BME280;39116;59.332;18.034;2023-03-15T09:07:32;99286.50;;;0.23;100.00
10824;BME280;39116;59.332;18.034;2023-03-15T09:09:54;99291.47;;;0.17;100.00
10824;BME280;39116;59.332;18.034;2023-03-15T09:12:16;99291.72;;;0.26;100.00
10824;BME280;39116;59.332;18.034;2023-03-15T09:14:38;99291.22;;;0.41;100.00
10824;BME280;39116;59.332;18.034;2023-03-15T09:17:00;99294.44;;;0.34;100.00
10824;BME280;39116;59.332;18.034;2023-03-15T09:19:22;99303.25;;;0.44;100.00
10824;BME280;39116;59.332;18.034;2023-03-15T09:21:44;99306.75;;;0.47;100.00
10824;BME280;39116;59.332;18.034;2023-03-15T09:24:08;99302.66;;;0.54;100.00
10824;BME280;39116;59.332;18.034;2023-03-15T09:26:29;99321.63;;;0.62;100.00
10824;BME280;39116;59.332;18.034;2023-03-15T09:28:51;99316.38;;;0.56;100.00
10824;BME280;39116;59.332;18.034;2023-03-15T09:31:13;99318.88;;;0.54;100.00
10824;BME280;39116;59.332;18.034;2023-03-15T09:33:35;99315.97;;;0.74;100.00
10824;BME280;39116;59.332;18.034;2023-03-15T09:35:57;99325.78;;;0.92;100.00
10824;BME280;39116;59.332;18.034;2023-03-15T09:38:19;99322.53;;;0.99;100.00
10824;BME280;39116;59.332;18.034;2023-03-15T09:40:45;99331.25;;;1.07;100.00
10824;BME280;39116;59.332;18.034;2023-03-15T09:43:20;99304.44;;;0.93;100.00
10824;BME280;39116;59.332;18.034;2023-03-15T09:46:02;99321.78;;;1.03;100.00
10824;BME280;39116;59.332;18.034;2023-03-15T09:48:31;99336.25;;;1.01;100.00
10824;BME280;39116;59.332;18.034;2023-03-15T09:50:59;99344.41;;;0.85;100.00
10824;BME280;39116;59.332;18.034;2023-03-15T09:53:25;99325.84;;;0.95;100.00
10824;BME280;39116;59.332;18.034;2023-03-15T09:55:50;99341.22;;;0.95;100.00
10824;BME280;39116;59.332;18.034;2023-03-15T09:58:14;99358.34;;;0.96;100.00
10824;BME280;39116;59.332;18.034;2023-03-15T10:00:40;99365.94;;;0.93;100.00
10824;BME280;39116;59.332;18.034;2023-03-15T10:03:04;99354.84;;;0.92;100.00
10824;BME280;39116;59.332;18.034;2023-03-15T10:05:37;99368.72;;;1.02;100.00
10824;BME280;39116;59.332;18.034;2023-03-15T10:08:00;99352.91;;;1.19;100.00
10824;BME280;39116;59.332;18.034;2023-03-15T10:10:27;99376.16;;;1.26;100.00
10824;BME280;39116;59.332;18.034;2023-03-15T10:12:59;99359.88;;;1.24;100.00
10824;BME280;39116;59.332;18.034;2023-03-15T10:15:29;99377.94;;;1.30;100.00
10824;BME280;39116;59.332;18.034;2023-03-15T10:18:10;99364.19;;;1.27;100.00
10824;BME280;39116;59.332;18.034;2023-03-15T10:20:38;99390.19;;;1.42;100.00
10824;BME280;39116;59.332;18.034;2023-03-15T10:23:04;99387.06;;;1.56;100.00
10824;BME280;39116;59.332;18.034;2023-03-15T10:25:32;99394.44;;;1.40;100.00
10824;BME280;39116;59.332;18.034;2023-03-15T10:27:59;99404.03;;;1.50;100.00
10824;BME280;39116;59.332;18.034;2023-03-15T10:30:23;99412.63;;;1.52;100.00
10824;BME280;39116;59.332;18.034;2023-03-15T10:32:50;99407.59;;;1.56;100.00
10824;BME280;39116;59.332;18.034;2023-03-15T10:35:14;99415.69;;;1.73;100.00
10824;BME280;39116;59.332;18.034;2023-03-15T10:37:36;99420.72;;;1.69;100.00
10824;BME280;39116;59.332;18.034;2023-03-15T10:39:58;99421.47;;;1.64;100.00
10824;BME280;39116;59.332;18.034;2023-03-15T10:42:28;99429.47;;;1.78;100.00
10824;BME280;39116;59.332;18.034;2023-03-15T10:44:52;99427.44;;;1.64;100.00
10824;BME280;39116;59.332;18.034;2023-03-15T10:47:18;99450.94;;;1.81;100.00
10824;BME280;39116;59.332;18.034;2023-03-15T10:49:43;99425.47;;;1.90;100.00
10824;BME280;39116;59.332;18.034;2023-03-15T10:52:05;99434.47;;;1.71;100.00
10824;BME280;39116;59.332;18.034;2023-03-15T10:54:29;99430.31;;;1.77;100.00
10824;BME280;39116;59.332;18.034;2023-03-15T10:56:58;99439.06;;;1.86;100.00
10824;BME280;39116;59.332;18.034;2023-03-15T10:59:22;99434.16;;;1.96;100.00
10824;BME280;39116;59.332;18.034;2023-03-15T11:01:51;99422.59;;;1.77;100.00
10824;BME280;39116;59.332;18.034;2023-03-15T11:04:17;99454.72;;;1.99;100.00
10824;BME280;39116;59.332;18.034;2023-03-15T11:06:41;99458.50;;;2.15;100.00
10824;BME280;39116;59.332;18.034;2023-03-15T11:09:10;99470.19;;;2.02;100.00
10824;BME280;39116;59.332;18.034;2023-03-15T11:11:51;99465.00;;;1.99;100.00
10824;BME280;39116;59.332;18.034;2023-03-15T11:14:13;99481.22;;;1.96;100.00
10824;BME280;39116;59.332;18.034;2023-03-15T11:16:36;99466.19;;;2.15;100.00
10824;BME280;39116;59.332;18.034;2023-03-15T11:19:01;99471.38;;;2.16;100.00
10824;BME280;39116;59.332;18.034;2023-03-15T11:21:27;99474.38;;;2.38;99.87
10824;BME280;39116;59.332;18.034;2023-03-15T11:23:53;99485.25;;;2.26;96.91
10824;BME280;39116;59.332;18.034;2023-03-15T11:26:17;99492.25;;;2.33;96.34
10824;BME280;39116;59.332;18.034;2023-03-15T11:28:45;99490.41;;;2.26;97.38
10824;BME280;39116;59.332;18.034;2023-03-15T11:31:08;99484.53;;;2.32;96.85
10824;BME280;39116;59.332;18.034;2023-03-15T11:33:41;99490.94;;;2.52;95.11
10824;BME280;39116;59.332;18.034;2023-03-15T11:36:09;99489.91;;;2.44;91.98
10824;BME280;39116;59.332;18.034;2023-03-15T11:38:35;99448.44;;;2.25;87.72
10824;BME280;39116;59.332;18.034;2023-03-15T11:40:59;99498.78;;;2.58;89.08
10824;BME280;39116;59.332;18.034;2023-03-15T11:43:24;99498.78;;;2.58;83.62
10824;BME280;39116;59.332;18.034;2023-03-15T11:45:53;99492.41;;;2.82;87.37
10824;BME280;39116;59.332;18.034;2023-03-15T11:48:19;99508.75;;;2.85;84.57
10824;BME280;39116;59.332;18.034;2023-03-15T11:50:45;99516.44;;;2.84;86.39
10824;BME280;39116;59.332;18.034;2023-03-15T11:53:09;99508.44;;;2.70;82.63
10824;BME280;39116;59.332;18.034;2023-03-15T11:55:34;99521.19;;;2.65;81.21
10824;BME280;39116;59.332;18.034;2023-03-15T11:57:56;99525.81;;;2.82;80.37
10824;BME280;39116;59.332;18.034;2023-03-15T12:03:22;99526.31;;;3.08;81.96
10824;BME280;39116;59.332;18.034;2023-03-15T12:05:48;99527.81;;;2.97;79.78
10824;BME280;39116;59.332;18.034;2023-03-15T12:08:22;99527.94;;;3.04;84.49
10824;BME280;39116;59.332;18.034;2023-03-15T12:10:46;99527.06;;;3.02;84.63
10824;BME280;39116;59.332;18.034;2023-03-15T12:13:18;99542.47;;;3.02;86.16
10824;BME280;39116;59.332;18.034;2023-03-15T12:15:48;99551.50;;;3.26;82.77
10824;BME280;39116;59.332;18.034;2023-03-15T12:18:15;99548.78;;;3.18;80.70
10824;BME280;39116;59.332;18.034;2023-03-15T12:20:39;99570.44;;;3.31;80.41
10824;BME280;39116;59.332;18.034;2023-03-15T12:23:17;99548.13;;;3.30;79.34
10824;BME280;39116;59.332;18.034;2023-03-15T12:25:47;99556.31;;;3.56;81.07